Terminal Aerodrome Forecast
Issued by NWS

Home | Current Version | Previous Version | Text Only | Print | Product List | Glossary On
Versions: 1 2 3 4 5 6 7 8 9 10 11 12 13 14 15 16 17 18
889
FTUS41 KCAR 221726 AAB
TAFFVE
TAF AMD
KFVE 221726Z 2217/2318 30012G22KT 4SM -SHRA SCT012 OVC040
     FM221900 29012G22KT P6SM VCSH OVC040
     FM222000 28009KT P6SM BKN070
     FM231200 30012G19KT P6SM BKN110
     FM231500 30017G30KT P6SM SCT100=

USA.gov is the U.S. government's official web portal to all federal, state and local government web resources and services.